sensor_id;sensor_type;location;lat;lon;timestamp;pressure;altitude;pressure_sealevel;temperature;humidity
12987;BME280;58897;51.960;5.582;2023-07-20T00:02:23;101113.69;;;17.37;100.00
12987;BME280;58897;51.960;5.582;2023-07-20T00:04:52;101120.44;;;17.41;100.00
12987;BME280;58897;51.960;5.582;2023-07-20T00:07:19;101123.13;;;17.35;100.00
12987;BME280;58897;51.960;5.582;2023-07-20T00:09:46;101122.94;;;17.36;100.00
12987;BME280;58897;51.960;5.582;2023-07-20T00:12:14;101120.28;;;17.21;100.00
12987;BME280;58897;51.960;5.582;2023-07-20T00:14:41;101119.06;;;17.24;100.00
12987;BME280;58897;51.960;5.582;2023-07-20T00:17:07;101123.78;;;17.09;100.00
12987;BME280;58897;51.960;5.582;2023-07-20T00:19:34;101119.03;;;17.17;100.00
12987;BME280;58897;51.960;5.582;2023-07-20T00:22:04;101113.09;;;17.14;100.00
12987;BME280;58897;51.960;5.582;2023-07-20T00:24:31;101116.44;;;17.09;100.00
12987;BME280;58897;51.960;5.582;2023-07-20T00:26:59;101113.66;;;17.03;100.00
12987;BME280;58897;51.960;5.582;2023-07-20T00:29:27;101125.25;;;17.05;100.00
12987;BME280;58897;51.960;5.582;2023-07-20T00:31:54;101128.16;;;17.03;100.00
12987;BME280;58897;51.960;5.582;2023-07-20T00:34:21;101134.25;;;17.05;100.00
12987;BME280;58897;51.960;5.582;2023-07-20T00:36:47;101131.50;;;17.05;100.00
12987;BME280;58897;51.960;5.582;2023-07-20T00:39:15;101127.50;;;17.01;100.00
12987;BME280;58897;51.960;5.582;2023-07-20T00:41:43;101133.56;;;16.97;100.00
12987;BME280;58897;51.960;5.582;2023-07-20T00:44:10;101119.78;;;17.05;100.00
12987;BME280;58897;51.960;5.582;2023-07-20T00:46:36;101127.13;;;17.04;100.00
12987;BME280;58897;51.960;5.582;2023-07-20T00:49:03;101123.47;;;16.97;100.00
12987;BME280;58897;51.960;5.582;2023-07-20T00:51:30;101128.03;;;16.90;100.00
12987;BME280;58897;51.960;5.582;2023-07-20T00:53:57;101131.03;;;16.95;100.00
12987;BME280;58897;51.960;5.582;2023-07-20T00:56:24;101134.00;;;17.00;100.00
12987;BME280;58897;51.960;5.582;2023-07-20T00:58:52;101135.94;;;16.79;100.00
12987;BME280;58897;51.960;5.582;2023-07-20T01:01:19;101137.69;;;16.86;100.00
12987;BME280;58897;51.960;5.582;2023-07-20T01:03:46;101133.06;;;16.87;100.00
12987;BME280;58897;51.960;5.582;2023-07-20T01:14:17;101133.06;;;16.87;100.00
12987;BME280;58897;51.960;5.582;2023-07-20T01:16:44;101132.41;;;16.85;100.00
12987;BME280;58897;51.960;5.582;2023-07-20T01:19:13;101136.81;;;16.86;100.00
12987;BME280;58897;51.960;5.582;2023-07-20T01:22:00;101126.31;;;16.83;100.00
12987;BME280;58897;51.960;5.582;2023-07-20T01:30:16;101148.25;;;16.75;100.00
12987;BME280;58897;51.960;5.582;2023-07-20T01:32:49;101144.69;;;16.74;100.00
12987;BME280;58897;51.960;5.582;2023-07-20T01:35:19;101146.50;;;16.67;100.00
12987;BME280;58897;51.960;5.582;2023-07-20T01:37:47;101141.84;;;16.61;100.00
12987;BME280;58897;51.960;5.582;2023-07-20T01:40:14;101139.91;;;16.55;100.00
12987;BME280;58897;51.960;5.582;2023-07-20T01:42:45;101144.22;;;16.49;100.00
12987;BME280;58897;51.960;5.582;2023-07-20T01:45:13;101143.31;;;16.42;100.00
12987;BME280;58897;51.960;5.582;2023-07-20T01:47:40;101145.09;;;16.35;100.00
12987;BME280;58897;51.960;5.582;2023-07-20T01:50:07;101141.09;;;16.31;100.00
12987;BME280;58897;51.960;5.582;2023-07-20T01:52:33;101140.75;;;16.20;100.00
12987;BME280;58897;51.960;5.582;2023-07-20T01:55:00;101151.91;;;16.25;100.00
12987;BME280;58897;51.960;5.582;2023-07-20T01:57:27;101150.09;;;16.11;100.00
12987;BME280;58897;51.960;5.582;2023-07-20T01:59:53;101147.09;;;16.05;100.00
12987;BME280;58897;51.960;5.582;2023-07-20T02:02:20;101149.34;;;16.02;100.00
12987;BME280;58897;51.960;5.582;2023-07-20T02:04:47;101149.34;;;16.02;100.00
12987;BME280;58897;51.960;5.582;2023-07-20T02:07:13;101144.09;;;16.00;100.00
12987;BME280;58897;51.960;5.582;2023-07-20T02:09:40;101144.91;;;16.01;100.00
12987;BME280;58897;51.960;5.582;2023-07-20T02:12:06;101148.59;;;15.93;100.00
12987;BME280;58897;51.960;5.582;2023-07-20T02:14:33;101150.09;;;15.96;100.00
12987;BME280;58897;51.960;5.582;2023-07-20T02:17:00;101155.66;;;15.88;100.00
12987;BME280;58897;51.960;5.582;2023-07-20T02:19:29;101166.53;;;15.88;100.00
12987;BME280;58897;51.960;5.582;2023-07-20T02:21:56;101158.94;;;15.83;100.00
12987;BME280;58897;51.960;5.582;2023-07-20T02:24:23;101155.09;;;15.78;100.00
12987;BME280;58897;51.960;5.582;2023-07-20T02:26:49;101151.72;;;15.76;100.00
12987;BME280;58897;51.960;5.582;2023-07-20T02:29:16;101145.53;;;15.82;100.00
12987;BME280;58897;51.960;5.582;2023-07-20T02:31:43;101151.44;;;15.71;100.00
12987;BME280;58897;51.960;5.582;2023-07-20T02:34:09;101150.59;;;15.70;100.00
12987;BME280;58897;51.960;5.582;2023-07-20T02:36:36;101157.63;;;15.65;100.00
12987;BME280;58897;51.960;5.582;2023-07-20T02:39:03;101157.19;;;15.61;100.00
12987;BME280;58897;51.960;5.582;2023-07-20T02:41:32;101162.53;;;15.55;100.00
12987;BME280;58897;51.960;5.582;2023-07-20T02:43:58;101167.31;;;15.53;100.00
12987;BME280;58897;51.960;5.582;2023-07-20T02:46:25;101171.56;;;15.55;100.00
12987;BME280;58897;51.960;5.582;2023-07-20T02:48:52;101176.91;;;15.49;100.00
12987;BME280;58897;51.960;5.582;2023-07-20T02:51:18;101172.41;;;15.56;100.00
12987;BME280;58897;51.960;5.582;2023-07-20T02:53:45;101179.72;;;15.55;100.00
12987;BME280;58897;51.960;5.582;2023-07-20T02:56:11;101175.88;;;15.50;100.00
12987;BME280;58897;51.960;5.582;2023-07-20T02:58:40;101178.03;;;15.54;100.00
12987;BME280;58897;51.960;5.582;2023-07-20T03:01:09;101178.59;;;15.50;100.00
12987;BME280;58897;51.960;5.582;2023-07-20T03:03:37;101183.00;;;15.51;100.00
12987;BME280;58897;51.960;5.582;2023-07-20T03:06:05;101194.28;;;15.48;100.00
12987;BME280;58897;51.960;5.582;2023-07-20T03:08:32;101204.13;;;15.49;100.00
12987;BME280;58897;51.960;5.582;2023-07-20T03:10:58;101209.22;;;15.43;100.00
12987;BME280;58897;51.960;5.582;2023-07-20T03:13:25;101201.41;;;15.49;100.00
12987;BME280;58897;51.960;5.582;2023-07-20T03:15:52;101200.38;;;15.50;100.00
12987;BME280;58897;51.960;5.582;2023-07-20T03:18:19;101200.66;;;15.55;100.00
12987;BME280;58897;51.960;5.582;2023-07-20T03:20:46;101201.03;;;15.52;100.00
12987;BME280;58897;51.960;5.582;2023-07-20T03:23:13;101203.91;;;15.35;100.00
12987;BME280;58897;51.960;5.582;2023-07-20T03:25:39;101199.56;;;15.41;100.00
12987;BME280;58897;51.960;5.582;2023-07-20T03:28:06;101203.13;;;15.27;100.00
12987;BME280;58897;51.960;5.582;2023-07-20T03:30:33;101203.22;;;15.33;100.00
12987;BME280;58897;51.960;5.582;2023-07-20T03:32:59;101206.78;;;15.34;100.00
12987;BME280;58897;51.960;5.582;2023-07-20T03:35:26;101205.56;;;15.36;100.00
12987;BME280;58897;51.960;5.582;2023-07-20T03:37:53;101208.22;;;15.30;100.00
12987;BME280;58897;51.960;5.582;2023-07-20T03:40:19;101203.28;;;15.25;100.00
12987;BME280;58897;51.960;5.582;2023-07-20T03:42:46;101209.72;;;15.32;100.00
12987;BME280;58897;51.960;5.582;2023-07-20T03:45:12;101204.44;;;15.31;100.00
12987;BME280;58897;51.960;5.582;2023-07-20T03:47:39;101204.56;;;15.37;100.00
12987;BME280;58897;51.960;5.582;2023-07-20T03:50:06;101206.78;;;15.34;100.00
12987;BME280;58897;51.960;5.582;2023-07-20T03:52:33;101204.44;;;15.31;100.00
12987;BME280;58897;51.960;5.582;2023-07-20T03:54:59;101203.69;;;15.22;100.00
12987;BME280;58897;51.960;5.582;2023-07-20T03:57:26;101202.06;;;15.28;100.00
12987;BME280;58897;51.960;5.582;2023-07-20T03:59:53;101203.84;;;15.21;100.00
12987;BME280;58897;51.960;5.582;2023-07-20T04:02:19;101206.41;;;15.22;100.00
12987;BME280;58897;51.960;5.582;2023-07-20T04:04:46;101205.56;;;15.22;100.00
12987;BME280;58897;51.960;5.582;2023-07-20T04:07:12;101208.66;;;15.19;100.00
12987;BME280;58897;51.960;5.582;2023-07-20T04:09:39;101212.88;;;15.21;100.00
12987;BME280;58897;51.960;5.582;2023-07-20T04:12:07;101214.88;;;15.27;100.00
12987;BME280;58897;51.960;5.582;2023-07-20T04:14:33;101212.88;;;15.21;100.00
12987;BME280;58897;51.960;5.582;2023-07-20T04:17:00;101219.91;;;15.30;100.00
12987;BME280;58897;51.960;5.582;2023-07-20T04:19:27;101220.75;;;15.31;100.00
12987;BME280;58897;51.960;5.582;2023-07-20T04:21:57;101223.41;;;15.39;100.00
12987;BME280;58897;51.960;5.582;2023-07-20T04:24:23;101223.41;;;15.39;100.00
12987;BME280;58897;51.960;5.582;2023-07-20T04:26:53;101222.56;;;15.38;100.00
12987;BME280;58897;51.960;5.582;2023-07-20T04:29:19;101227.97;;;15.47;100.00
12987;BME280;58897;51.960;5.582;2023-07-20T04:31:46;101227.72;;;15.56;100.00
12987;BME280;58897;51.960;5.582;2023-07-20T04:34:12;101235.31;;;15.61;100.00
12987;BME280;58897;51.960;5.582;2023-07-20T04:36:39;101233.72;;;15.66;100.00
12987;BME280;58897;51.960;5.582;2023-07-20T04:39:06;101232.22;;;15.78;100.00
12987;BME280;58897;51.960;5.582;2023-07-20T04:41:54;101235.13;;;15.62;100.00
12987;BME280;58897;51.960;5.582;2023-07-20T04:44:21;101230.81;;;15.82;100.00
12987;BME280;58897;51.960;5.582;2023-07-20T04:46:47;101236.44;;;15.81;100.00
12987;BME280;58897;51.960;5.582;2023-07-20T04:49:14;101239.66;;;15.84;100.00
12987;BME280;58897;51.960;5.582;2023-07-20T04:51:41;101239.94;;;15.89;100.00
12987;BME280;58897;51.960;5.582;2023-07-20T04:54:07;101234.84;;;16.01;100.00
12987;BME280;58897;51.960;5.582;2023-07-20T04:56:34;101232.69;;;16.11;100.00
12987;BME280;58897;51.960;5.582;2023-07-20T04:59:01;101235.31;;;16.04;100.00
12987;BME280;58897;51.960;5.582;2023-07-20T05:01:27;101231.16;;;16.08;100.00
12987;BME280;58897;51.960;5.582;2023-07-20T05:03:57;101232.78;;;16.03;100.00
12987;BME280;58897;51.960;5.582;2023-07-20T05:06:24;101233.81;;;16.02;100.00
12987;BME280;58897;51.960;5.582;2023-07-20T05:08:51;101237.13;;;15.97;100.00
12987;BME280;58897;51.960;5.582;2023-07-20T05:11:18;101234.75;;;15.94;100.00
12987;BME280;58897;51.960;5.582;2023-07-20T05:13:44;101234.00;;;15.86;100.00
12987;BME280;58897;51.960;5.582;2023-07-20T05:16:11;101243.75;;;15.80;100.00
12987;BME280;58897;51.960;5.582;2023-07-20T05:18:40;101248.06;;;15.75;100.00
12987;BME280;58897;51.960;5.582;2023-07-20T05:21:07;101246.78;;;15.71;100.00
12987;BME280;58897;51.960;5.582;2023-07-20T05:23:34;101240.03;;;15.81;100.00
12987;BME280;58897;51.960;5.582;2023-07-20T05:26:01;101253.72;;;15.88;100.00
12987;BME280;58897;51.960;5.582;2023-07-20T05:28:27;101246.03;;;15.91;100.00
12987;BME280;58897;51.960;5.582;2023-07-20T05:30:55;101242.66;;;15.89;100.00
12987;BME280;58897;51.960;5.582;2023-07-20T05:33:22;101246.84;;;16.06;100.00
12987;BME280;58897;51.960;5.582;2023-07-20T05:35:49;101251.84;;;16.18;100.00
12987;BME280;58897;51.960;5.582;2023-07-20T05:38:15;101245.72;;;16.30;100.00
12987;BME280;58897;51.960;5.582;2023-07-20T05:40:44;101247.13;;;16.55;100.00
12987;BME280;58897;51.960;5.582;2023-07-20T05:43:11;101239.19;;;16.60;100.00
12987;BME280;58897;51.960;5.582;2023-07-20T05:45:41;101242.56;;;16.48;100.00
12987;BME280;58897;51.960;5.582;2023-07-20T05:48:08;101239.31;;;16.52;100.00
12987;BME280;58897;51.960;5.582;2023-07-20T05:50:41;101239.19;;;16.46;100.00
12987;BME280;58897;51.960;5.582;2023-07-20T05:53:09;101242.41;;;16.35;100.00
12987;BME280;58897;51.960;5.582;2023-07-20T05:55:35;101252.50;;;16.20;100.00
12987;BME280;58897;51.960;5.582;2023-07-20T05:58:02;101247.13;;;16.26;100.00
12987;BME280;58897;51.960;5.582;2023-07-20T06:00:30;101246.28;;;16.26;100.00
12987;BME280;58897;51.960;5.582;2023-07-20T06:02:57;101244.09;;;16.36;100.00
12987;BME280;58897;51.960;5.582;2023-07-20T06:05:24;101250.50;;;16.57;100.00
12987;BME280;58897;51.960;5.582;2023-07-20T06:07:54;101248.94;;;16.70;100.00
12987;BME280;58897;51.960;5.582;2023-07-20T06:10:21;101248.22;;;16.82;100.00
12987;BME280;58897;51.960;5.582;2023-07-20T06:12:48;101246.13;;;16.84;100.00
12987;BME280;58897;51.960;5.582;2023-07-20T06:15:25;101249.31;;;16.66;100.00
12987;BME280;58897;51.960;5.582;2023-07-20T06:17:54;101245.09;;;16.64;100.00
12987;BME280;58897;51.960;5.582;2023-07-20T06:20:22;101237.75;;;16.64;100.00
12987;BME280;58897;51.960;5.582;2023-07-20T06:22:48;101240.75;;;16.70;100.00
12987;BME280;58897;51.960;5.582;2023-07-20T06:25:15;101242.13;;;16.80;100.00
12987;BME280;58897;51.960;5.582;2023-07-20T06:27:42;101245.00;;;16.93;100.00
12987;BME280;58897;51.960;5.582;2023-07-20T06:30:09;101243.78;;;17.23;100.00
12987;BME280;58897;51.960;5.582;2023-07-20T06:32:36;101244.50;;;17.53;100.00
12987;BME280;58897;51.960;5.582;2023-07-20T06:35:03;101243.13;;;17.70;100.00
12987;BME280;58897;51.960;5.582;2023-07-20T06:37:30;101243.38;;;18.10;100.00
12987;BME280;58897;51.960;5.582;2023-07-20T06:39:57;101236.25;;;18.15;100.00
12987;BME280;58897;51.960;5.582;2023-07-20T06:42:26;101236.56;;;17.93;100.00
12987;BME280;58897;51.960;5.582;2023-07-20T06:45:13;101236.19;;;17.68;100.00
12987;BME280;58897;51.960;5.582;2023-07-20T06:47:40;101241.91;;;17.73;100.00
12987;BME280;58897;51.960;5.582;2023-07-20T06:50:07;101241.00;;;17.66;100.00
12987;BME280;58897;51.960;5.582;2023-07-20T06:52:33;101253.56;;;17.60;100.00
12987;BME280;58897;51.960;5.582;2023-07-20T06:55:00;101242.97;;;17.51;100.00
12987;BME280;58897;51.960;5.582;2023-07-20T06:57:31;101239.75;;;17.41;100.00
12987;BME280;58897;51.960;5.582;2023-07-20T06:59:58;101241.88;;;17.45;100.00
12987;BME280;58897;51.960;5.582;2023-07-20T07:02:24;101242.00;;;17.58;100.00
12987;BME280;58897;51.960;5.582;2023-07-20T07:04:51;101250.56;;;18.17;100.00
12987;BME280;58897;51.960;5.582;2023-07-20T07:07:26;101230.84;;;19.87;100.00
12987;BME280;58897;51.960;5.582;2023-07-20T07:09:53;101221.38;;;20.47;100.00
12987;BME280;58897;51.960;5.582;2023-07-20T07:12:20;101228.81;;;20.33;100.00
12987;BME280;58897;51.960;5.582;2023-07-20T07:14:46;101228.50;;;20.61;100.00
12987;BME280;58897;51.960;5.582;2023-07-20T07:17:13;101228.19;;;21.38;100.00
12987;BME280;58897;51.960;5.582;2023-07-20T07:19:45;101239.84;;;20.14;100.00
12987;BME280;58897;51.960;5.582;2023-07-20T07:22:14;101238.88;;;19.17;100.00
12987;BME280;58897;51.960;5.582;2023-07-20T07:24:41;101241.78;;;18.69;100.00
12987;BME280;58897;51.960;5.582;2023-07-20T07:27:08;101237.81;;;19.11;100.00
12987;BME280;58897;51.960;5.582;2023-07-20T07:29:36;101233.25;;;20.35;100.00
12987;BME280;58897;51.960;5.582;2023-07-20T07:32:02;101230.84;;;20.89;100.00
12987;BME280;58897;51.960;5.582;2023-07-20T07:34:29;101233.34;;;21.53;100.00
12987;BME280;58897;51.960;5.582;2023-07-20T07:36:56;101232.84;;;21.87;100.00
12987;BME280;58897;51.960;5.582;2023-07-20T07:39:22;101228.13;;;21.45;100.00
12987;BME280;58897;51.960;5.582;2023-07-20T07:41:53;101230.56;;;21.35;100.00
12987;BME280;58897;51.960;5.582;2023-07-20T07:44:20;101236.94;;;20.98;100.00
12987;BME280;58897;51.960;5.582;2023-07-20T07:46:48;101248.72;;;20.09;100.00
12987;BME280;58897;51.960;5.582;2023-07-20T07:49:16;101241.13;;;21.00;100.00
12987;BME280;58897;51.960;5.582;2023-07-20T07:51:42;101247.59;;;20.43;100.00
12987;BME280;58897;51.960;5.582;2023-07-20T07:54:09;101247.34;;;19.67;100.00
12987;BME280;58897;51.960;5.582;2023-07-20T07:56:36;101246.06;;;19.18;100.00
12987;BME280;58897;51.960;5.582;2023-07-20T07:59:02;101245.66;;;19.40;100.00
12987;BME280;58897;51.960;5.582;2023-07-20T08:01:29;101244.41;;;19.62;100.00
12987;BME280;58897;51.960;5.582;2023-07-20T08:03:56;101251.13;;;19.53;100.00
12987;BME280;58897;51.960;5.582;2023-07-20T08:06:23;101237.63;;;21.24;100.00
12987;BME280;58897;51.960;5.582;2023-07-20T08:08:51;101241.81;;;22.49;100.00
12987;BME280;58897;51.960;5.582;2023-07-20T08:11:18;101245.94;;;21.05;100.00
12987;BME280;58897;51.960;5.582;2023-07-20T08:13:44;101250.09;;;20.51;100.00
12987;BME280;58897;51.960;5.582;2023-07-20T08:16:11;101251.59;;;20.85;100.00
12987;BME280;58897;51.960;5.582;2023-07-20T08:18:38;101254.97;;;20.43;100.00
12987;BME280;58897;51.960;5.582;2023-07-20T08:21:04;101254.28;;;19.83;100.00
12987;BME280;58897;51.960;5.582;2023-07-20T08:23:31;101254.22;;;20.03;100.00
12987;BME280;58897;51.960;5.582;2023-07-20T08:25:58;101255.69;;;20.12;100.00
12987;BME280;58897;51.960;5.582;2023-07-20T08:28:25;101255.72;;;19.99;100.00
12987;BME280;58897;51.960;5.582;2023-07-20T08:30:53;101256.72;;;20.24;100.00
12987;BME280;58897;51.960;5.582;2023-07-20T08:33:19;101263.25;;;20.23;100.00
12987;BME280;58897;51.960;5.582;2023-07-20T08:35:46;101266.00;;;20.16;100.00
12987;BME280;58897;51.960;5.582;2023-07-20T08:38:13;101270.22;;;20.19;100.00
12987;BME280;58897;51.960;5.582;2023-07-20T08:40:41;101270.25;;;20.25;100.00
12987;BME280;58897;51.960;5.582;2023-07-20T08:43:10;101256.34;;;22.01;100.00
12987;BME280;58897;51.960;5.582;2023-07-20T08:45:39;101250.56;;;24.05;100.00
12987;BME280;58897;51.960;5.582;2023-07-20T08:48:07;101258.06;;;24.55;100.00
12987;BME280;58897;51.960;5.582;2023-07-20T08:50:35;101258.31;;;22.85;100.00
12987;BME280;58897;51.960;5.582;2023-07-20T08:53:02;101258.06;;;22.39;100.00
12987;BME280;58897;51.960;5.582;2023-07-20T08:55:30;101261.38;;;21.06;100.00
12987;BME280;58897;51.960;5.582;2023-07-20T08:57:57;101258.25;;;21.58;100.00
12987;BME280;58897;51.960;5.582;2023-07-20T09:00:25;101260.22;;;22.85;100.00
12987;BME280;58897;51.960;5.582;2023-07-20T09:02:53;101253.22;;;22.70;100.00
12987;BME280;58897;51.960;5.582;2023-07-20T09:05:22;101253.91;;;22.11;100.00
12987;BME280;58897;51.960;5.582;2023-07-20T09:07:51;101247.47;;;23.13;100.00
12987;BME280;58897;51.960;5.582;2023-07-20T09:10:20;101240.88;;;24.93;87.03
12987;BME280;58897;51.960;5.582;2023-07-20T09:12:47;101240.91;;;25.55;83.72
12987;BME280;58897;51.960;5.582;2023-07-20T09:15:14;101245.56;;;24.93;79.50
12987;BME280;58897;51.960;5.582;2023-07-20T09:17:49;101249.88;;;24.09;85.07
12987;BME280;58897;51.960;5.582;2023-07-20T09:20:17;101249.22;;;25.10;79.49
12987;BME280;58897;51.960;5.582;2023-07-20T09:22:50;101241.69;;;25.05;80.14
12987;BME280;58897;51.960;5.582;2023-07-20T09:25:19;101247.78;;;25.52;76.97
12987;BME280;58897;51.960;5.582;2023-07-20T09:27:49;101241.63;;;25.84;74.59
12987;BME280;58897;51.960;5.582;2023-07-20T09:30:18;101246.16;;;25.56;74.71
12987;BME280;58897;51.960;5.582;2023-07-20T09:32:46;101244.31;;;25.62;79.17
12987;BME280;58897;51.960;5.582;2023-07-20T09:35:20;101245.41;;;24.20;85.77
12987;BME280;58897;51.960;5.582;2023-07-20T09:38:01;101253.06;;;24.41;87.70
12987;BME280;58897;51.960;5.582;2023-07-20T09:40:30;101249.50;;;23.48;86.99
12987;BME280;58897;51.960;5.582;2023-07-20T09:43:08;101243.88;;;23.01;91.98
12987;BME280;58897;51.960;5.582;2023-07-20T09:45:41;101246.78;;;22.40;97.21
12987;BME280;58897;51.960;5.582;2023-07-20T09:48:11;101245.66;;;23.07;91.95
12987;BME280;58897;51.960;5.582;2023-07-20T09:50:43;101241.00;;;23.08;91.72
12987;BME280;58897;51.960;5.582;2023-07-20T09:53:14;101233.75;;;25.59;79.25
12987;BME280;58897;51.960;5.582;2023-07-20T09:55:44;101227.66;;;26.77;67.09
12987;BME280;58897;51.960;5.582;2023-07-20T09:58:11;101231.63;;;26.21;69.90
12987;BME280;58897;51.960;5.582;2023-07-20T10:00:39;101221.66;;;26.85;65.74
12987;BME280;58897;51.960;5.582;2023-07-20T10:03:11;101233.91;;;25.69;72.32
12987;BME280;58897;51.960;5.582;2023-07-20T10:05:50;101225.59;;;25.86;68.20
12987;BME280;58897;51.960;5.582;2023-07-20T10:08:19;101235.78;;;26.02;69.12
12987;BME280;58897;51.960;5.582;2023-07-20T10:10:50;101232.31;;;26.11;73.43
12987;BME280;58897;51.960;5.582;2023-07-20T10:13:18;101232.38;;;25.11;79.30
12987;BME280;58897;51.960;5.582;2023-07-20T10:15:50;101231.16;;;23.76;88.49
12987;BME280;58897;51.960;5.582;2023-07-20T10:20:49;101237.81;;;23.22;97.85
12987;BME280;58897;51.960;5.582;2023-07-20T10:23:21;101226.19;;;24.65;88.43
12987;BME280;58897;51.960;5.582;2023-07-20T10:25:50;101228.38;;;25.69;82.33
12987;BME280;58897;51.960;5.582;2023-07-20T10:28:16;101220.63;;;26.96;74.41
12987;BME280;58897;51.960;5.582;2023-07-20T10:30:44;101214.38;;;27.74;68.19
12987;BME280;58897;51.960;5.582;2023-07-20T10:33:12;101210.84;;;28.31;62.65
12987;BME280;58897;51.960;5.582;2023-07-20T10:36:00;101215.53;;;27.15;63.04
12987;BME280;58897;51.960;5.582;2023-07-20T10:41:21;101218.56;;;26.16;70.04
12987;BME280;58897;51.960;5.582;2023-07-20T10:43:48;101223.00;;;26.82;68.74
12987;BME280;58897;51.960;5.582;2023-07-20T10:49:07;101232.72;;;23.49;90.26
12987;BME280;58897;51.960;5.582;2023-07-20T10:51:44;101224.22;;;24.48;87.57
12987;BME280;58897;51.960;5.582;2023-07-20T10:56:47;101217.47;;;24.16;81.20
12987;BME280;58897;51.960;5.582;2023-07-20T10:59:36;101212.13;;;23.10;90.77
12987;BME280;58897;51.960;5.582;2023-07-20T11:02:07;101216.13;;;23.26;91.72
12987;BME280;58897;51.960;5.582;2023-07-20T11:04:42;101216.13;;;23.26;95.46
12987;BME280;58897;51.960;5.582;2023-07-20T11:07:09;101220.59;;;22.97;92.87
12987;BME280;58897;51.960;5.582;2023-07-20T11:09:38;101216.94;;;22.26;94.48
12987;BME280;58897;51.960;5.582;2023-07-20T11:12:16;101226.31;;;22.84;97.43
12987;BME280;58897;51.960;5.582;2023-07-20T11:14:56;101214.56;;;22.77;98.50
12987;BME280;58897;51.960;5.582;2023-07-20T11:17:33;101220.53;;;22.74;95.18
12987;BME280;58897;51.960;5.582;2023-07-20T11:20:01;101211.22;;;23.28;91.50
12987;BME280;58897;51.960;5.582;2023-07-20T11:22:32;101199.53;;;24.70;82.98
12987;BME280;58897;51.960;5.582;2023-07-20T11:24:58;101205.44;;;24.62;86.57
12987;BME280;58897;51.960;5.582;2023-07-20T11:27:25;101199.00;;;26.71;70.23
12987;BME280;58897;51.960;5.582;2023-07-20T11:29:52;101196.56;;;27.33;64.48
12987;BME280;58897;51.960;5.582;2023-07-20T11:32:23;101198.06;;;26.82;66.30
12987;BME280;58897;51.960;5.582;2023-07-20T11:34:50;101185.91;;;27.47;66.49
12987;BME280;58897;51.960;5.582;2023-07-20T11:37:17;101187.47;;;27.75;61.22
12987;BME280;58897;51.960;5.582;2023-07-20T11:39:45;101186.06;;;25.52;67.67
12987;BME280;58897;51.960;5.582;2023-07-20T11:42:13;101184.31;;;25.84;65.77
12987;BME280;58897;51.960;5.582;2023-07-20T11:45:02;101177.97;;;26.75;63.54
12987;BME280;58897;51.960;5.582;2023-07-20T11:47:32;101177.66;;;26.45;63.61
12987;BME280;58897;51.960;5.582;2023-07-20T11:50:03;101173.78;;;26.94;58.87
12987;BME280;58897;51.960;5.582;2023-07-20T11:52:30;101167.53;;;27.09;60.07
12987;BME280;58897;51.960;5.582;2023-07-20T11:54:57;101167.50;;;26.29;63.15
12987;BME280;58897;51.960;5.582;2023-07-20T11:57:24;101165.38;;;27.16;55.84
12987;BME280;58897;51.960;5.582;2023-07-20T11:59:58;101164.22;;;27.12;56.46
12987;BME280;58897;51.960;5.582;2023-07-20T12:02:27;101175.03;;;26.82;63.35
12987;BME280;58897;51.960;5.582;2023-07-20T12:04:57;101159.81;;;25.38;66.70
12987;BME280;58897;51.960;5.582;2023-07-20T12:07:27;101158.47;;;26.65;58.82
12987;BME280;58897;51.960;5.582;2023-07-20T12:10:05;101152.72;;;26.98;55.18
12987;BME280;58897;51.960;5.582;2023-07-20T12:12:33;101155.72;;;26.92;58.76
12987;BME280;58897;51.960;5.582;2023-07-20T12:15:17;101155.19;;;25.98;62.21
12987;BME280;58897;51.960;5.582;2023-07-20T12:17:52;101161.00;;;25.25;66.88
12987;BME280;58897;51.960;5.582;2023-07-20T12:20:36;101161.72;;;26.30;63.33
12987;BME280;58897;51.960;5.582;2023-07-20T12:23:04;101151.19;;;25.01;67.61
12987;BME280;58897;51.960;5.582;2023-07-20T12:25:42;101155.19;;;26.42;61.73
12987;BME280;58897;51.960;5.582;2023-07-20T12:28:13;101147.06;;;27.47;59.66
12987;BME280;58897;51.960;5.582;2023-07-20T12:30:41;101157.34;;;27.20;57.95
12987;BME280;58897;51.960;5.582;2023-07-20T12:33:08;101149.69;;;26.73;60.35
12987;BME280;58897;51.960;5.582;2023-07-20T12:35:35;101148.84;;;24.93;62.07
12987;BME280;58897;51.960;5.582;2023-07-20T12:38:02;101153.72;;;24.58;64.81
12987;BME280;58897;51.960;5.582;2023-07-20T12:40:29;101146.94;;;26.03;60.47
12987;BME280;58897;51.960;5.582;2023-07-20T12:42:57;101144.53;;;26.55;61.30
12987;BME280;58897;51.960;5.582;2023-07-20T12:45:23;101147.88;;;26.30;57.83
12987;BME280;58897;51.960;5.582;2023-07-20T12:47:50;101140.44;;;26.36;62.67
12987;BME280;58897;51.960;5.582;2023-07-20T12:50:17;101139.16;;;27.34;57.38
12987;BME280;58897;51.960;5.582;2023-07-20T12:52:43;101142.16;;;28.21;54.88
12987;BME280;58897;51.960;5.582;2023-07-20T12:55:10;101137.72;;;28.10;54.31
12987;BME280;58897;51.960;5.582;2023-07-20T12:57:37;101140.28;;;27.75;51.08
12987;BME280;58897;51.960;5.582;2023-07-20T13:00:06;101134.44;;;28.23;52.76
12987;BME280;58897;51.960;5.582;2023-07-20T13:02:34;101137.13;;;26.87;58.02
12987;BME280;58897;51.960;5.582;2023-07-20T13:05:02;101142.31;;;26.09;65.09
12987;BME280;58897;51.960;5.582;2023-07-20T13:07:37;101129.16;;;26.43;62.15
12987;BME280;58897;51.960;5.582;2023-07-20T13:10:07;101121.44;;;26.45;60.01
12987;BME280;58897;51.960;5.582;2023-07-20T13:12:35;101133.75;;;25.50;63.05
12987;BME280;58897;51.960;5.582;2023-07-20T13:15:03;101134.25;;;25.47;68.73